createdAt,value
2017-08-02T00:00:00.678Z,19.83
2017-08-02T00:00:05.345Z,19.83
2017-08-02T00:00:09.745Z,19.84
2017-08-02T00:00:14.237Z,19.83
2017-08-02T00:00:18.716Z,19.84
2017-08-02T00:00:23.171Z,19.84
2017-08-02T00:00:27.397Z,19.84
2017-08-02T00:00:31.853Z,19.84
2017-08-02T00:00:36.214Z,19.84
2017-08-02T00:00:40.570Z,19.84
2017-08-02T00:00:45.038Z,19.84
2017-08-02T00:00:49.372Z,19.84
2017-08-02T00:00:53.615Z,19.84
2017-08-02T00:00:57.981Z,19.85
2017-08-02T00:01:02.550Z,19.85
2017-08-02T00:01:07.021Z,19.84
2017-08-02T00:01:11.490Z,19.85
2017-08-02T00:01:15.952Z,19.85
2017-08-02T00:01:20.420Z,19.84
2017-08-02T00:01:24.893Z,19.85
2017-08-02T00:01:29.365Z,19.85
2017-08-02T00:01:33.713Z,19.84
2017-08-02T00:01:38.049Z,19.85
2017-08-02T00:01:42.509Z,19.86
2017-08-02T00:01:46.746Z,19.85
2017-08-02T00:01:51.115Z,19.85
2017-08-02T00:01:55.585Z,19.85
2017-08-02T00:01:59.820Z,19.85
2017-08-02T00:02:04.157Z,19.85
2017-08-02T00:02:08.627Z,19.85
2017-08-02T00:02:12.991Z,19.85
2017-08-02T00:02:17.464Z,19.85
2017-08-02T00:02:21.915Z,19.86
2017-08-02T00:02:26.376Z,19.85
2017-08-02T00:02:30.738Z,19.85
2017-08-02T00:02:35.106Z,19.85
2017-08-02T00:02:39.468Z,19.86
2017-08-02T00:02:43.827Z,19.85
2017-08-02T00:02:48.281Z,19.85
2017-08-02T00:02:52.510Z,19.85
2017-08-02T00:02:56.747Z,19.85
2017-08-02T00:03:01.101Z,19.86
2017-08-02T00:03:05.739Z,19.86
2017-08-02T00:03:10.097Z,19.85
2017-08-02T00:03:14.440Z,19.85
2017-08-02T00:03:18.671Z,19.86
2017-08-02T00:03:23.122Z,19.86
2017-08-02T00:03:27.241Z,19.86
2017-08-02T00:03:31.738Z,19.86
2017-08-02T00:03:36.206Z,19.86
2017-08-02T00:03:40.458Z,19.86
2017-08-02T00:03:44.816Z,19.86
2017-08-02T00:03:49.300Z,19.85
2017-08-02T00:03:53.769Z,19.86
2017-08-02T00:03:58.247Z,19.86
2017-08-02T00:04:02.612Z,19.86
2017-08-02T00:04:06.838Z,19.86
2017-08-02T00:04:11.085Z,19.86
2017-08-02T00:04:15.545Z,19.86
2017-08-02T00:04:19.887Z,19.86
2017-08-02T00:04:24.238Z,19.86
2017-08-02T00:04:28.706Z,19.86
2017-08-02T00:04:33.156Z,19.86
2017-08-02T00:04:37.393Z,19.87
2017-08-02T00:04:41.865Z,19.86
2017-08-02T00:04:46.228Z,19.86
2017-08-02T00:04:50.477Z,19.85
2017-08-02T00:04:54.932Z,19.86
2017-08-02T00:04:59.396Z,19.86
2017-08-02T00:05:03.502Z,19.86
2017-08-02T00:05:07.840Z,19.86
2017-08-02T00:05:12.200Z,19.86
2017-08-02T00:05:16.310Z,19.86
2017-08-02T00:05:20.773Z,19.86
2017-08-02T00:05:25.108Z,19.86
2017-08-02T00:05:29.586Z,19.86
2017-08-02T00:05:33.928Z,19.86
2017-08-02T00:05:38.267Z,19.86
2017-08-02T00:05:42.616Z,19.87
2017-08-02T00:05:46.961Z,19.87
2017-08-02T00:05:51.425Z,19.86
2017-08-02T00:05:55.669Z,19.87
2017-08-02T00:05:59.912Z,19.87
2017-08-02T00:06:04.032Z,19.87
2017-08-02T00:06:08.268Z,19.86
2017-08-02T00:06:12.735Z,19.87
2017-08-02T00:06:16.852Z,19.87
2017-08-02T00:06:21.197Z,19.87
2017-08-02T00:06:25.659Z,19.86
2017-08-02T00:06:30.009Z,19.87
2017-08-02T00:06:34.497Z,19.87
2017-08-02T00:06:38.964Z,19.87
2017-08-02T00:06:43.303Z,19.87
2017-08-02T00:06:47.667Z,19.87
2017-08-02T00:06:52.147Z,19.87
2017-08-02T00:06:56.614Z,19.87
2017-08-02T00:07:00.964Z,19.87
2017-08-02T00:07:05.371Z,19.86
2017-08-02T00:07:09.844Z,19.86
2017-08-02T00:07:14.316Z,19.86
2017-08-02T00:07:18.660Z,19.87
2017-08-02T00:07:23.125Z,19.87
2017-08-02T00:07:27.488Z,19.87
2017-08-02T00:07:31.945Z,19.87
2017-08-02T00:07:36.181Z,19.87
2017-08-02T00:07:40.678Z,19.86
2017-08-02T00:07:45.179Z,19.87
2017-08-02T00:07:49.625Z,19.87
2017-08-02T00:07:53.964Z,19.87
2017-08-02T00:07:58.425Z,19.87
2017-08-02T00:08:03.023Z,19.86
2017-08-02T00:08:07.374Z,19.86
2017-08-02T00:08:11.582Z,19.86
2017-08-02T00:08:15.813Z,19.86
2017-08-02T00:08:20.177Z,19.86
2017-08-02T00:08:24.642Z,19.86
2017-08-02T00:08:28.993Z,19.86
2017-08-02T00:08:33.229Z,19.86
2017-08-02T00:08:37.587Z,19.86
2017-08-02T00:08:42.051Z,19.86
2017-08-02T00:08:46.395Z,19.86
2017-08-02T00:08:50.743Z,19.86
2017-08-02T00:08:55.095Z,19.86
2017-08-02T00:08:59.555Z,19.86
2017-08-02T00:09:04.064Z,19.86
2017-08-02T00:09:08.293Z,19.86
2017-08-02T00:09:12.632Z,19.86
2017-08-02T00:09:17.089Z,19.86
2017-08-02T00:09:21.451Z,19.86
2017-08-02T00:09:25.796Z,19.86
2017-08-02T00:09:30.264Z,19.86
2017-08-02T00:09:34.595Z,19.86
2017-08-02T00:09:39.052Z,19.86
2017-08-02T00:09:43.512Z,19.87
2017-08-02T00:09:47.979Z,19.86
2017-08-02T00:09:52.329Z,19.85
2017-08-02T00:09:56.800Z,19.86
2017-08-02T00:10:01.185Z,19.86
2017-08-02T00:10:05.626Z,19.86
2017-08-02T00:10:09.967Z,19.86
2017-08-02T00:10:14.448Z,19.86
2017-08-02T00:10:18.839Z,19.87
2017-08-02T00:10:23.406Z,19.86
2017-08-02T00:10:27.641Z,19.86
2017-08-02T00:10:31.995Z,19.86
2017-08-02T00:10:36.483Z,19.86
2017-08-02T00:10:40.832Z,19.86
2017-08-02T00:10:45.298Z,19.87
2017-08-02T00:10:49.758Z,19.86
2017-08-02T00:10:54.214Z,19.87
2017-08-02T00:10:58.694Z,19.86
2017-08-02T00:11:03.236Z,19.86
2017-08-02T00:11:07.720Z,19.87
2017-08-02T00:11:11.950Z,19.87
2017-08-02T00:11:16.414Z,19.86
2017-08-02T00:11:20.788Z,19.87
2017-08-02T00:11:25.259Z,19.87
2017-08-02T00:11:29.609Z,19.87
2017-08-02T00:11:34.059Z,19.87
2017-08-02T00:11:38.535Z,19.87
2017-08-02T00:11:43.003Z,19.87
2017-08-02T00:11:47.357Z,19.87
2017-08-02T00:11:51.700Z,19.87
2017-08-02T00:11:56.175Z,19.86
2017-08-02T00:12:00.519Z,19.87
2017-08-02T00:12:05.009Z,19.88
2017-08-02T00:12:09.461Z,19.88
2017-08-02T00:12:13.811Z,19.87
2017-08-02T00:12:18.152Z,19.88
2017-08-02T00:12:22.624Z,19.87
2017-08-02T00:12:26.968Z,19.87
2017-08-02T00:12:31.212Z,19.88
2017-08-02T00:12:35.561Z,19.88
2017-08-02T00:12:40.024Z,19.88
2017-08-02T00:12:44.254Z,19.88
2017-08-02T00:12:48.750Z,19.88
2017-08-02T00:12:53.106Z,19.89
2017-08-02T00:12:57.560Z,19.89
2017-08-02T00:13:02.022Z,19.88
2017-08-02T00:13:06.499Z,19.88
2017-08-02T00:13:10.970Z,19.89
2017-08-02T00:13:15.435Z,19.89
2017-08-02T00:13:19.923Z,19.9
2017-08-02T00:13:24.274Z,19.89
2017-08-02T00:13:28.746Z,19.9
2017-08-02T00:13:33.205Z,19.89
2017-08-02T00:13:37.677Z,19.89
2017-08-02T00:13:42.145Z,19.9
2017-08-02T00:13:46.614Z,19.91
2017-08-02T00:13:50.835Z,19.9
2017-08-02T00:13:55.310Z,19.9
2017-08-02T00:13:59.755Z,19.91
2017-08-02T00:14:04.094Z,19.91
2017-08-02T00:14:08.572Z,19.91
2017-08-02T00:14:12.909Z,19.91
2017-08-02T00:14:17.382Z,19.92
2017-08-02T00:14:21.848Z,19.92
2017-08-02T00:14:26.189Z,19.92
2017-08-02T00:14:30.670Z,19.92
2017-08-02T00:14:35.140Z,19.92
2017-08-02T00:14:39.484Z,19.93
2017-08-02T00:14:43.936Z,19.91
2017-08-02T00:14:48.284Z,19.92
2017-08-02T00:14:52.743Z,19.92
2017-08-02T00:14:57.205Z,19.93
2017-08-02T00:15:01.561Z,19.93
2017-08-02T00:15:06.395Z,19.93
2017-08-02T00:15:10.849Z,19.94
2017-08-02T00:15:14.974Z,19.94
2017-08-02T00:15:19.216Z,19.93
2017-08-02T00:15:23.677Z,19.94
2017-08-02T00:15:28.029Z,19.94
2017-08-02T00:15:32.504Z,19.94
2017-08-02T00:15:36.846Z,19.94
2017-08-02T00:15:41.316Z,19.95
2017-08-02T00:15:45.782Z,19.95
2017-08-02T00:15:50.278Z,19.96
2017-08-02T00:15:54.646Z,19.95
2017-08-02T00:15:59.114Z,19.96
2017-08-02T00:16:03.334Z,19.96
2017-08-02T00:16:07.799Z,19.96
2017-08-02T00:16:12.278Z,19.97
2017-08-02T00:16:16.746Z,19.96
2017-08-02T00:16:20.978Z,19.96
2017-08-02T00:16:25.220Z,19.97
2017-08-02T00:16:29.677Z,19.97
2017-08-02T00:16:34.019Z,19.97
2017-08-02T00:16:38.374Z,19.98
2017-08-02T00:16:42.845Z,19.97
2017-08-02T00:16:47.316Z,19.98
2017-08-02T00:16:51.675Z,19.98
2017-08-02T00:16:56.159Z,19.99
2017-08-02T00:17:00.618Z,19.99
2017-08-02T00:17:04.965Z,19.99
2017-08-02T00:17:09.418Z,19.99
2017-08-02T00:17:13.750Z,19.99
2017-08-02T00:17:18.215Z,19.99
2017-08-02T00:17:22.680Z,20
2017-08-02T00:17:27.028Z,19.99
2017-08-02T00:17:31.372Z,20
2017-08-02T00:17:35.733Z,20
2017-08-02T00:17:39.952Z,20
2017-08-02T00:17:44.401Z,20
2017-08-02T00:17:48.747Z,20
2017-08-02T00:17:53.090Z,20
2017-08-02T00:17:57.565Z,20
2017-08-02T00:18:02.029Z,20.01
2017-08-02T00:18:06.271Z,20
2017-08-02T00:18:10.616Z,20.01
2017-08-02T00:18:15.084Z,20
2017-08-02T00:18:19.443Z,20.01
2017-08-02T00:18:23.818Z,20.01
2017-08-02T00:18:28.152Z,20.01
2017-08-02T00:18:32.624Z,20.02
2017-08-02T00:18:36.970Z,20.02
2017-08-02T00:18:41.444Z,20.01
2017-08-02T00:18:45.794Z,20.01
2017-08-02T00:18:50.246Z,20.02
2017-08-02T00:18:54.600Z,20.02
2017-08-02T00:18:59.073Z,20.02
2017-08-02T00:19:03.730Z,20.02
2017-08-02T00:19:08.188Z,20.02
2017-08-02T00:19:12.667Z,20.03
2017-08-02T00:19:17.121Z,20.02
2017-08-02T00:19:21.572Z,20.03
2017-08-02T00:19:25.793Z,20.02
2017-08-02T00:19:30.025Z,20.02
2017-08-02T00:19:34.477Z,20.03
2017-08-02T00:19:38.711Z,20.03
2017-08-02T00:19:43.178Z,20.02
2017-08-02T00:19:47.415Z,20.03
2017-08-02T00:19:51.769Z,20.03
2017-08-02T00:19:56.110Z,20.04
2017-08-02T00:20:00.581Z,20.03
2017-08-02T00:20:05.059Z,20.03
2017-08-02T00:20:09.420Z,20.03
2017-08-02T00:20:13.761Z,20.04
2017-08-02T00:20:18.242Z,20.04
2017-08-02T00:20:22.588Z,20.04
2017-08-02T00:20:27.045Z,20.04
2017-08-02T00:20:31.149Z,20.04
2017-08-02T00:20:35.494Z,20.05
2017-08-02T00:20:39.856Z,20.04
2017-08-02T00:20:44.321Z,20.04
2017-08-02T00:20:48.684Z,20.04
2017-08-02T00:20:52.920Z,20.04
2017-08-02T00:20:57.268Z,20.05
2017-08-02T00:21:01.384Z,20.04
2017-08-02T00:21:05.849Z,20.04
2017-08-02T00:21:10.314Z,20.05
2017-08-02T00:21:14.806Z,20.04
2017-08-02T00:21:19.262Z,20.04
2017-08-02T00:21:23.731Z,20.05
2017-08-02T00:21:28.074Z,20.04
2017-08-02T00:21:32.540Z,20.05
2017-08-02T00:21:37.004Z,20.06
2017-08-02T00:21:41.333Z,20.05
2017-08-02T00:21:45.834Z,20.05
2017-08-02T00:21:50.061Z,20.04
2017-08-02T00:21:54.277Z,20.05
2017-08-02T00:21:58.749Z,20.05
2017-08-02T00:22:03.244Z,20.05
2017-08-02T00:22:07.593Z,20.05
2017-08-02T00:22:11.939Z,20.05
2017-08-02T00:22:16.422Z,20.05
2017-08-02T00:22:20.898Z,20.06
2017-08-02T00:22:25.370Z,20.05
2017-08-02T00:22:29.825Z,20.05
2017-08-02T00:22:34.048Z,20.05
2017-08-02T00:22:38.523Z,20.05
2017-08-02T00:22:42.988Z,20.05
2017-08-02T00:22:47.223Z,20.07
2017-08-02T00:22:51.581Z,20.06
2017-08-02T00:22:55.923Z,20.06
2017-08-02T00:23:00.270Z,20.07
2017-08-02T00:23:04.380Z,20.06
2017-08-02T00:23:08.846Z,20.05
2017-08-02T00:23:13.335Z,20.06
2017-08-02T00:23:17.809Z,20.06
2017-08-02T00:23:22.164Z,20.06
2017-08-02T00:23:26.521Z,20.06
2017-08-02T00:23:30.760Z,20.06
2017-08-02T00:23:34.995Z,20.06
2017-08-02T00:23:39.451Z,20.05
2017-08-02T00:23:43.948Z,20.06
2017-08-02T00:23:48.067Z,20.06
2017-08-02T00:23:52.534Z,20.06
2017-08-02T00:23:57.007Z,20.06
2017-08-02T00:24:01.457Z,20.06
2017-08-02T00:24:05.933Z,20.06
2017-08-02T00:24:10.287Z,20.06
2017-08-02T00:24:14.763Z,20.07
2017-08-02T00:24:19.246Z,20.07
2017-08-02T00:24:23.577Z,20.06
2017-08-02T00:24:28.046Z,20.07
2017-08-02T00:24:32.392Z,20.06
2017-08-02T00:24:36.858Z,20.06
2017-08-02T00:24:41.226Z,20.06
2017-08-02T00:24:45.573Z,20.06
2017-08-02T00:24:49.801Z,20.06
2017-08-02T00:24:54.014Z,20.06
2017-08-02T00:24:58.490Z,20.06
2017-08-02T00:25:02.841Z,20.06
2017-08-02T00:25:07.190Z,20.06
2017-08-02T00:25:11.550Z,20.07
2017-08-02T00:25:16.006Z,20.05
2017-08-02T00:25:20.464Z,20.06
2017-08-02T00:25:24.916Z,20.06
2017-08-02T00:25:29.268Z,20.05
2017-08-02T00:25:33.473Z,20.06
2017-08-02T00:25:37.924Z,20.05
2017-08-02T00:25:42.269Z,20.05
2017-08-02T00:25:46.628Z,20.05
2017-08-02T00:25:50.971Z,20.05
2017-08-02T00:25:55.446Z,20.05
2017-08-02T00:25:59.900Z,20.05
2017-08-02T00:26:04.561Z,20.05
2017-08-02T00:26:09.031Z,20.05
2017-08-02T00:26:13.373Z,20.05
2017-08-02T00:26:17.835Z,20.05
2017-08-02T00:26:22.068Z,20.05
2017-08-02T00:26:26.531Z,20.04
2017-08-02T00:26:30.874Z,20.05
2017-08-02T00:26:35.343Z,20.04
2017-08-02T00:26:39.685Z,20.04
2017-08-02T00:26:43.806Z,20.04
2017-08-02T00:26:48.267Z,20.04
2017-08-02T00:26:52.619Z,20.04
2017-08-02T00:26:57.075Z,20.04
2017-08-02T00:27:01.418Z,20.04
2017-08-02T00:27:05.755Z,20.04
2017-08-02T00:27:10.209Z,20.04
2017-08-02T00:27:14.674Z,20.03
2017-08-02T00:27:19.157Z,20.04
2017-08-02T00:27:23.624Z,20.04
2017-08-02T00:27:27.864Z,20.03
2017-08-02T00:27:32.326Z,20.03
2017-08-02T00:27:36.671Z,20.04
2017-08-02T00:27:41.023Z,20.03
2017-08-02T00:27:45.387Z,20.02
2017-08-02T00:27:49.856Z,20.02
2017-08-02T00:27:54.327Z,20.03
2017-08-02T00:27:58.671Z,20.02
2017-08-02T00:28:03.102Z,20.02
2017-08-02T00:28:07.464Z,20.02
2017-08-02T00:28:11.942Z,20.03
2017-08-02T00:28:16.422Z,20.01
2017-08-02T00:28:20.786Z,20.02
2017-08-02T00:28:25.133Z,20.02
2017-08-02T00:28:29.600Z,20.02
2017-08-02T00:28:34.061Z,20.02
2017-08-02T00:28:38.290Z,20.02
2017-08-02T00:28:42.751Z,20.02
2017-08-02T00:28:47.203Z,20.02
2017-08-02T00:28:51.555Z,20.01
2017-08-02T00:28:56.000Z,20.01
2017-08-02T00:29:00.452Z,20.02
2017-08-02T00:29:04.923Z,20.01
2017-08-02T00:29:09.377Z,20
2017-08-02T00:29:13.727Z,20.01
2017-08-02T00:29:18.073Z,20
2017-08-02T00:29:22.430Z,20.01
2017-08-02T00:29:26.777Z,20
2017-08-02T00:29:31.114Z,20
2017-08-02T00:29:35.340Z,20
2017-08-02T00:29:39.571Z,20
2017-08-02T00:29:44.051Z,20
2017-08-02T00:29:48.517Z,20
2017-08-02T00:29:52.868Z,20
2017-08-02T00:29:57.222Z,19.99
2017-08-02T00:30:01.687Z,19.99
2017-08-02T00:30:06.050Z,19.99
2017-08-02T00:30:10.510Z,19.99
2017-08-02T00:30:14.983Z,19.99
2017-08-02T00:30:19.440Z,19.99
2017-08-02T00:30:23.921Z,19.99
2017-08-02T00:30:28.156Z,19.99
2017-08-02T00:30:32.539Z,19.99
2017-08-02T00:30:37.018Z,19.99
2017-08-02T00:30:41.485Z,19.99
2017-08-02T00:30:45.963Z,19.98
2017-08-02T00:30:50.188Z,19.98
2017-08-02T00:30:54.650Z,19.98
2017-08-02T00:30:59.002Z,19.98
2017-08-02T00:31:03.346Z,19.98
2017-08-02T00:31:07.832Z,19.97
2017-08-02T00:31:12.308Z,19.97
2017-08-02T00:31:16.533Z,19.97
2017-08-02T00:31:21.010Z,19.97
2017-08-02T00:31:25.382Z,19.97
2017-08-02T00:31:29.606Z,19.97
2017-08-02T00:31:34.068Z,19.96
2017-08-02T00:31:38.554Z,19.97
2017-08-02T00:31:43.037Z,19.96
2017-08-02T00:31:47.496Z,19.96
2017-08-02T00:31:51.722Z,19.97
2017-08-02T00:31:56.192Z,19.97
2017-08-02T00:32:00.659Z,19.96
2017-08-02T00:32:04.940Z,19.95
2017-08-02T00:32:09.275Z,19.95
2017-08-02T00:32:13.610Z,19.96
2017-08-02T00:32:18.080Z,19.94
2017-08-02T00:32:22.540Z,19.94
2017-08-02T00:32:27.008Z,19.94
2017-08-02T00:32:31.475Z,19.94
2017-08-02T00:32:35.921Z,19.94
2017-08-02T00:32:40.373Z,19.95
2017-08-02T00:32:44.835Z,19.93
2017-08-02T00:32:49.308Z,19.93
2017-08-02T00:32:53.769Z,19.93
2017-08-02T00:32:58.125Z,19.94
2017-08-02T00:33:02.238Z,19.93
2017-08-02T00:33:06.364Z,19.94
2017-08-02T00:33:10.826Z,19.93
2017-08-02T00:33:15.291Z,19.93
2017-08-02T00:33:19.769Z,19.93
2017-08-02T00:33:24.008Z,19.93
2017-08-02T00:33:28.468Z,19.92
2017-08-02T00:33:32.795Z,19.93
2017-08-02T00:33:37.265Z,19.92
2017-08-02T00:33:41.380Z,19.92
2017-08-02T00:33:45.715Z,19.92
2017-08-02T00:33:50.061Z,19.92
2017-08-02T00:33:54.296Z,19.92
2017-08-02T00:33:58.529Z,19.92
2017-08-02T00:34:02.962Z,19.92
2017-08-02T00:34:07.428Z,19.91
2017-08-02T00:34:11.889Z,19.91
2017-08-02T00:34:16.373Z,19.91
2017-08-02T00:34:20.720Z,19.91
2017-08-02T00:34:25.053Z,19.91
2017-08-02T00:34:29.519Z,19.91
2017-08-02T00:34:33.880Z,19.91
2017-08-02T00:34:38.352Z,19.91
2017-08-02T00:34:42.836Z,19.91
2017-08-02T00:34:47.298Z,19.9
2017-08-02T00:34:51.514Z,19.9
2017-08-02T00:34:55.837Z,19.9
2017-08-02T00:35:00.187Z,19.9
2017-08-02T00:35:04.545Z,19.9
2017-08-02T00:35:09.074Z,19.9
2017-08-02T00:35:13.534Z,19.89
2017-08-02T00:35:17.768Z,19.9
2017-08-02T00:35:22.121Z,19.89
2017-08-02T00:35:26.472Z,19.89
2017-08-02T00:35:30.817Z,19.88
2017-08-02T00:35:35.286Z,19.89
2017-08-02T00:35:39.743Z,19.89
2017-08-02T00:35:44.208Z,19.88
2017-08-02T00:35:48.658Z,19.88
2017-08-02T00:35:53.016Z,19.88
2017-08-02T00:35:57.497Z,19.88
2017-08-02T00:36:01.842Z,19.88
2017-08-02T00:36:06.181Z,19.88
2017-08-02T00:36:10.285Z,19.88
2017-08-02T00:36:14.623Z,19.87
2017-08-02T00:36:19.078Z,19.87
2017-08-02T00:36:23.527Z,19.87
2017-08-02T00:36:28.028Z,19.86
2017-08-02T00:36:32.384Z,19.86
2017-08-02T00:36:36.847Z,19.86
2017-08-02T00:36:41.068Z,19.86
2017-08-02T00:36:45.425Z,19.86
2017-08-02T00:36:49.871Z,19.87
2017-08-02T00:36:54.204Z,19.86
2017-08-02T00:36:58.653Z,19.86
2017-08-02T00:37:03.013Z,19.85
2017-08-02T00:37:07.354Z,19.85
2017-08-02T00:37:11.705Z,19.85
2017-08-02T00:37:16.053Z,19.85
2017-08-02T00:37:20.392Z,19.85
2017-08-02T00:37:24.750Z,19.84
2017-08-02T00:37:29.211Z,19.85
2017-08-02T00:37:33.678Z,19.84
2017-08-02T00:37:38.131Z,19.84
2017-08-02T00:37:42.487Z,19.84
2017-08-02T00:37:46.584Z,19.84
2017-08-02T00:37:51.069Z,19.85
2017-08-02T00:37:55.321Z,19.84
2017-08-02T00:37:59.659Z,19.84
2017-08-02T00:38:04.163Z,19.83
2017-08-02T00:38:08.629Z,19.83
2017-08-02T00:38:12.989Z,19.83
2017-08-02T00:38:17.322Z,19.83
2017-08-02T00:38:21.782Z,19.83
2017-08-02T00:38:26.251Z,19.83
2017-08-02T00:38:30.617Z,19.83
2017-08-02T00:38:35.070Z,19.83
2017-08-02T00:38:39.285Z,19.82
2017-08-02T00:38:43.765Z,19.82
2017-08-02T00:38:48.117Z,19.82
2017-08-02T00:38:52.225Z,19.82
2017-08-02T00:38:56.447Z,19.82
2017-08-02T00:39:00.675Z,19.81
2017-08-02T00:39:05.026Z,19.81
2017-08-02T00:39:09.497Z,19.81
2017-08-02T00:39:13.738Z,19.81
2017-08-02T00:39:18.064Z,19.81
2017-08-02T00:39:22.558Z,19.81
2017-08-02T00:39:27.024Z,19.8
2017-08-02T00:39:31.494Z,19.81
2017-08-02T00:39:35.837Z,19.81
2017-08-02T00:39:40.310Z,19.81
2017-08-02T00:39:44.642Z,19.81
2017-08-02T00:39:48.871Z,19.8
2017-08-02T00:39:53.101Z,19.81
2017-08-02T00:39:57.436Z,19.79
2017-08-02T00:40:01.907Z,19.8
2017-08-02T00:40:05.911Z,19.79
2017-08-02T00:40:10.258Z,19.8
2017-08-02T00:40:14.712Z,19.81
2017-08-02T00:40:19.063Z,19.79
2017-08-02T00:40:23.537Z,19.79
2017-08-02T00:40:28.253Z,19.78
2017-08-02T00:40:32.588Z,19.79
2017-08-02T00:40:37.037Z,19.78
2017-08-02T00:40:41.527Z,19.78
2017-08-02T00:40:45.903Z,19.77
2017-08-02T00:40:50.235Z,19.79
2017-08-02T00:40:54.697Z,19.78
2017-08-02T00:40:59.055Z,19.77
2017-08-02T00:41:03.299Z,19.77
2017-08-02T00:41:07.520Z,19.77
2017-08-02T00:41:11.987Z,19.77
2017-08-02T00:41:16.324Z,19.76
2017-08-02T00:41:20.782Z,19.76
2017-08-02T00:41:25.122Z,19.76
2017-08-02T00:41:29.590Z,19.76
2017-08-02T00:41:34.056Z,19.76
2017-08-02T00:41:38.396Z,19.75
2017-08-02T00:41:42.865Z,19.75
2017-08-02T00:41:47.329Z,19.76
2017-08-02T00:41:51.705Z,19.76
2017-08-02T00:41:56.052Z,19.75
2017-08-02T00:42:00.267Z,19.75
2017-08-02T00:42:04.768Z,19.76
2017-08-02T00:42:09.121Z,19.75
2017-08-02T00:42:13.597Z,19.76
2017-08-02T00:42:18.059Z,19.74
2017-08-02T00:42:22.413Z,19.75
2017-08-02T00:42:26.671Z,19.74
2017-08-02T00:42:31.140Z,19.74
2017-08-02T00:42:35.483Z,19.74
2017-08-02T00:42:39.946Z,19.74
2017-08-02T00:42:44.413Z,19.75
2017-08-02T00:42:48.747Z,19.74
2017-08-02T00:42:53.089Z,19.74
2017-08-02T00:42:57.436Z,19.74
2017-08-02T00:43:02.093Z,19.73
2017-08-02T00:43:06.433Z,19.73
2017-08-02T00:43:10.902Z,19.73
2017-08-02T00:43:15.371Z,19.74
2017-08-02T00:43:19.826Z,19.73
2017-08-02T00:43:24.300Z,19.73
2017-08-02T00:43:28.763Z,19.73
2017-08-02T00:43:33.225Z,19.74
2017-08-02T00:43:37.671Z,19.73
2017-08-02T00:43:41.761Z,19.73
2017-08-02T00:43:46.118Z,19.72
2017-08-02T00:43:50.574Z,19.73
2017-08-02T00:43:55.036Z,19.72
2017-08-02T00:43:59.534Z,19.73
2017-08-02T00:44:04.188Z,19.72
2017-08-02T00:44:08.685Z,19.73
2017-08-02T00:44:13.021Z,19.71
2017-08-02T00:44:17.478Z,19.72
2017-08-02T00:44:21.945Z,19.71
2017-08-02T00:44:26.414Z,19.72
2017-08-02T00:44:30.758Z,19.71
2017-08-02T00:44:35.116Z,19.71
2017-08-02T00:44:39.459Z,19.72
2017-08-02T00:44:43.684Z,19.72
2017-08-02T00:44:48.031Z,19.72
2017-08-02T00:44:52.374Z,19.71
2017-08-02T00:44:56.720Z,19.72
2017-08-02T00:45:01.090Z,19.71
2017-08-02T00:45:05.853Z,19.72
2017-08-02T00:45:10.308Z,19.72
2017-08-02T00:45:14.767Z,19.71
2017-08-02T00:45:19.211Z,19.71
2017-08-02T00:45:23.670Z,19.71
2017-08-02T00:45:28.012Z,19.72
2017-08-02T00:45:32.478Z,19.71
2017-08-02T00:45:36.931Z,19.71
2017-08-02T00:45:41.153Z,19.71
2017-08-02T00:45:45.502Z,19.7
2017-08-02T00:45:49.744Z,19.7
2017-08-02T00:45:53.976Z,19.7
2017-08-02T00:45:58.200Z,19.71
2017-08-02T00:46:02.540Z,19.71
2017-08-02T00:46:06.993Z,19.71
2017-08-02T00:46:11.440Z,19.7
2017-08-02T00:46:15.890Z,19.71
2017-08-02T00:46:20.254Z,19.71
2017-08-02T00:46:24.715Z,19.7
2017-08-02T00:46:29.056Z,19.7
2017-08-02T00:46:33.296Z,19.71
2017-08-02T00:46:37.766Z,19.7
2017-08-02T00:46:42.244Z,19.7
2017-08-02T00:46:46.703Z,19.7
2017-08-02T00:46:51.047Z,19.7
2017-08-02T00:46:55.285Z,19.7
2017-08-02T00:46:59.742Z,19.7
2017-08-02T00:47:04.083Z,19.7
2017-08-02T00:47:08.558Z,19.7
2017-08-02T00:47:13.033Z,19.7
2017-08-02T00:47:17.502Z,19.7
2017-08-02T00:47:21.978Z,19.7
2017-08-02T00:47:26.437Z,19.7
2017-08-02T00:47:30.912Z,19.69
2017-08-02T00:47:35.269Z,19.7
2017-08-02T00:47:39.484Z,19.7
2017-08-02T00:47:43.825Z,19.69
2017-08-02T00:47:48.293Z,19.7
2017-08-02T00:47:52.531Z,19.7
2017-08-02T00:47:56.990Z,19.7
2017-08-02T00:48:01.451Z,19.69
2017-08-02T00:48:05.865Z,19.69
2017-08-02T00:48:10.329Z,19.69
2017-08-02T00:48:14.785Z,19.69
2017-08-02T00:48:19.279Z,19.69
2017-08-02T00:48:23.641Z,19.69
2017-08-02T00:48:27.992Z,19.69
2017-08-02T00:48:32.454Z,19.69
2017-08-02T00:48:36.921Z,19.68
2017-08-02T00:48:41.272Z,19.69
2017-08-02T00:48:45.623Z,19.68
2017-08-02T00:48:49.949Z,19.68
2017-08-02T00:48:54.288Z,19.68
2017-08-02T00:48:58.650Z,19.69
2017-08-02T00:49:03.271Z,19.68
2017-08-02T00:49:07.602Z,19.68
2017-08-02T00:49:11.835Z,19.69
2017-08-02T00:49:16.300Z,19.68
2017-08-02T00:49:20.529Z,19.69
2017-08-02T00:49:24.858Z,19.68
2017-08-02T00:49:29.305Z,19.68
2017-08-02T00:49:33.530Z,19.69
2017-08-02T00:49:37.998Z,19.68
2017-08-02T00:49:42.460Z,19.67
2017-08-02T00:49:46.701Z,19.67
2017-08-02T00:49:51.046Z,19.68
2017-08-02T00:49:55.280Z,19.67
2017-08-02T00:49:59.746Z,19.67
2017-08-02T00:50:04.410Z,19.67
2017-08-02T00:50:08.531Z,19.67
2017-08-02T00:50:12.878Z,19.67
2017-08-02T00:50:17.340Z,19.67
2017-08-02T00:50:21.828Z,19.67
2017-08-02T00:50:26.175Z,19.67
2017-08-02T00:50:30.515Z,19.67
2017-08-02T00:50:34.865Z,19.67
2017-08-02T00:50:39.113Z,19.67
2017-08-02T00:50:43.090Z,19.67
2017-08-02T00:50:47.552Z,19.67
2017-08-02T00:50:51.897Z,19.67
2017-08-02T00:50:56.252Z,19.67
2017-08-02T00:51:00.591Z,19.67
2017-08-02T00:51:05.282Z,19.67
2017-08-02T00:51:09.498Z,19.67
2017-08-02T00:51:13.842Z,19.66
2017-08-02T00:51:18.297Z,19.67
2017-08-02T00:51:22.761Z,19.66
2017-08-02T00:51:27.229Z,19.66
2017-08-02T00:51:31.693Z,19.66
2017-08-02T00:51:35.933Z,19.66
2017-08-02T00:51:40.405Z,19.65
2017-08-02T00:51:44.739Z,19.65
2017-08-02T00:51:49.082Z,19.65
2017-08-02T00:51:53.544Z,19.66
2017-08-02T00:51:57.997Z,19.66
2017-08-02T00:52:02.600Z,19.66
2017-08-02T00:52:07.055Z,19.66
2017-08-02T00:52:11.275Z,19.65
2017-08-02T00:52:15.745Z,19.65
2017-08-02T00:52:20.098Z,19.65
2017-08-02T00:52:24.332Z,19.65
2017-08-02T00:52:28.675Z,19.65
2017-08-02T00:52:33.011Z,19.65
2017-08-02T00:52:37.350Z,19.65
2017-08-02T00:52:41.805Z,19.64
2017-08-02T00:52:46.261Z,19.66
2017-08-02T00:52:50.489Z,19.64
2017-08-02T00:52:54.846Z,19.65
2017-08-02T00:52:59.196Z,19.64
2017-08-02T00:53:03.793Z,19.64
2017-08-02T00:53:08.259Z,19.65
2017-08-02T00:53:12.479Z,19.65
2017-08-02T00:53:16.940Z,19.64
2017-08-02T00:53:21.397Z,19.64
2017-08-02T00:53:25.757Z,19.64
2017-08-02T00:53:30.244Z,19.64
2017-08-02T00:53:34.614Z,19.64
2017-08-02T00:53:39.065Z,19.65
2017-08-02T00:53:43.551Z,19.64
2017-08-02T00:53:47.910Z,19.64
2017-08-02T00:53:52.249Z,19.65
2017-08-02T00:53:56.717Z,19.64
2017-08-02T00:54:01.170Z,19.64
2017-08-02T00:54:05.654Z,19.65
2017-08-02T00:54:10.106Z,19.64
2017-08-02T00:54:14.461Z,19.64
2017-08-02T00:54:18.918Z,19.64
2017-08-02T00:54:23.264Z,19.63
2017-08-02T00:54:27.485Z,19.64
2017-08-02T00:54:31.804Z,19.64
2017-08-02T00:54:36.146Z,19.64
2017-08-02T00:54:40.613Z,19.64
2017-08-02T00:54:44.947Z,19.63
2017-08-02T00:54:49.281Z,19.64
2017-08-02T00:54:53.625Z,19.63
2017-08-02T00:54:57.969Z,19.63
2017-08-02T00:55:02.192Z,19.63
2017-08-02T00:55:06.643Z,19.63
2017-08-02T00:55:11.002Z,19.63
2017-08-02T00:55:15.360Z,19.63
2017-08-02T00:55:19.712Z,19.63
2017-08-02T00:55:24.180Z,19.63
2017-08-02T00:55:28.420Z,19.63
2017-08-02T00:55:32.640Z,19.63
2017-08-02T00:55:36.986Z,19.63
2017-08-02T00:55:41.449Z,19.62
2017-08-02T00:55:45.802Z,19.63
2017-08-02T00:55:50.140Z,19.64
2017-08-02T00:55:54.256Z,19.64
2017-08-02T00:55:58.479Z,19.63
2017-08-02T00:56:02.936Z,19.63
2017-08-02T00:56:07.391Z,19.63
2017-08-02T00:56:11.735Z,19.62
2017-08-02T00:56:15.972Z,19.63
2017-08-02T00:56:20.329Z,19.62
2017-08-02T00:56:24.782Z,19.63
2017-08-02T00:56:29.014Z,19.63
2017-08-02T00:56:33.358Z,19.62
2017-08-02T00:56:37.736Z,19.61
2017-08-02T00:56:42.192Z,19.62